ANA583 RJFF-RJFM
Flight info
| Callsign | ANA583 |
|---|---|
| Flight time | 0h 32m |
| Altitude | 15000 |
| Route | YAMGA KUE ESKAP KROMA ENBEN MZE |
| Aircraft | B789/H-SDE1E2E3FGHIJ2J3J4J5M1RWXY/LB1D1 |
Departure
| Time | 2026-05-07 16:56 |
|---|---|
| Airport | Fukuoka Airport (RJFF) |
Arrival
| Time | 2026-05-07 17:29 |
|---|---|
| Airport | Miyazaki Airport (RJFM) |
| Time | Latitude | Longitude | Altitude | Speed | Heading |
|---|---|---|---|---|---|
| 2026-05-07 16:52 | 33.58644 | 130.45350 | 37 ft | 0 kts | 31° |
| 2026-05-07 16:52 | 33.58645 | 130.45350 | 37 ft | 1 kts | 30° |
| 2026-05-07 16:53 | 33.58670 | 130.45343 | 37 ft | 4 kts | 318° |
| 2026-05-07 16:53 | 33.58692 | 130.45297 | 38 ft | 11 kts | 300° |
| 2026-05-07 16:53 | 33.58742 | 130.45200 | 40 ft | 16 kts | 316° |
| 2026-05-07 16:53 | 33.58863 | 130.45111 | 36 ft | 24 kts | 330° |
| 2026-05-07 16:54 | 33.59015 | 130.45006 | 33 ft | 26 kts | 330° |
| 2026-05-07 16:54 | 33.59183 | 130.44891 | 30 ft | 28 kts | 330° |
| 2026-05-07 16:54 | 33.59357 | 130.44772 | 29 ft | 29 kts | 330° |
| 2026-05-07 16:54 | 33.59531 | 130.44653 | 32 ft | 29 kts | 330° |
| 2026-05-07 16:55 | 33.59696 | 130.44541 | 32 ft | 23 kts | 330° |
| 2026-05-07 16:55 | 33.59731 | 130.44436 | 33 ft | 15 kts | 245° |
| 2026-05-07 16:55 | 33.59651 | 130.44360 | 32 ft | 18 kts | 173° |
| 2026-05-07 16:55 | 33.59372 | 130.44539 | 32 ft | 87 kts | 150° |
| 2026-05-07 16:56 | 33.58591 | 130.45069 | 48 ft | 167 kts | 151° |
| 2026-05-07 16:56 | 33.57558 | 130.45764 | 505 ft | 169 kts | 152° |
| 2026-05-07 16:56 | 33.55304 | 130.47232 | 1456 ft | 195 kts | 155° |
| 2026-05-07 16:57 | 33.54118 | 130.47944 | 2103 ft | 192 kts | 159° |
| 2026-05-07 16:57 | 33.52881 | 130.48580 | 2734 ft | 195 kts | 163° |
| 2026-05-07 16:57 | 33.51644 | 130.49337 | 3221 ft | 207 kts | 153° |
| 2026-05-07 16:57 | 33.50375 | 130.50284 | 3702 ft | 223 kts | 154° |
| 2026-05-07 16:58 | 33.48984 | 130.51194 | 4319 ft | 234 kts | 158° |
| 2026-05-07 16:58 | 33.47481 | 130.52074 | 4914 ft | 248 kts | 158° |
| 2026-05-07 16:58 | 33.45904 | 130.53034 | 5544 ft | 260 kts | 157° |
| 2026-05-07 16:58 | 33.44277 | 130.54058 | 6323 ft | 267 kts | 157° |
| 2026-05-07 16:59 | 33.42607 | 130.55107 | 7056 ft | 274 kts | 157° |
| 2026-05-07 16:59 | 33.40899 | 130.56167 | 7799 ft | 280 kts | 158° |
| 2026-05-07 16:59 | 33.39152 | 130.57249 | 8539 ft | 286 kts | 158° |
| 2026-05-07 16:59 | 33.37366 | 130.58358 | 9277 ft | 292 kts | 158° |
| 2026-05-07 17:00 | 33.35545 | 130.59490 | 10004 ft | 298 kts | 158° |
| 2026-05-07 17:00 | 33.33678 | 130.60647 | 10530 ft | 310 kts | 158° |
| 2026-05-07 17:00 | 33.31716 | 130.61859 | 10959 ft | 325 kts | 158° |
| 2026-05-07 17:00 | 33.29660 | 130.63133 | 11400 ft | 340 kts | 158° |
| 2026-05-07 17:01 | 33.27513 | 130.64462 | 11822 ft | 355 kts | 158° |
| 2026-05-07 17:01 | 33.25276 | 130.65852 | 12245 ft | 370 kts | 158° |
| 2026-05-07 17:01 | 33.22944 | 130.67298 | 12667 ft | 385 kts | 158° |
| 2026-05-07 17:01 | 33.20523 | 130.68795 | 13029 ft | 400 kts | 158° |
| 2026-05-07 17:02 | 33.18010 | 130.70348 | 13394 ft | 412 kts | 158° |
| 2026-05-07 17:02 | 33.15444 | 130.71938 | 14008 ft | 418 kts | 158° |
| 2026-05-07 17:02 | 33.12846 | 130.73548 | 14559 ft | 424 kts | 158° |
| 2026-05-07 17:02 | 33.10186 | 130.75122 | 14885 ft | 427 kts | 162° |
| 2026-05-07 17:03 | 33.07370 | 130.76133 | 14943 ft | 422 kts | 171° |
| 2026-05-07 17:03 | 33.04531 | 130.77067 | 14957 ft | 424 kts | 169° |
| 2026-05-07 17:03 | 33.01705 | 130.78046 | 14958 ft | 423 kts | 169° |
| 2026-05-07 17:03 | 32.98881 | 130.79009 | 14961 ft | 422 kts | 169° |
| 2026-05-07 17:04 | 32.96050 | 130.79944 | 14962 ft | 422 kts | 170° |
| 2026-05-07 17:04 | 32.93222 | 130.80882 | 14963 ft | 422 kts | 169° |
| 2026-05-07 17:04 | 32.90398 | 130.81833 | 14963 ft | 423 kts | 169° |
| 2026-05-07 17:04 | 32.87573 | 130.82781 | 14975 ft | 431 kts | 169° |
| 2026-05-07 17:05 | 32.84688 | 130.83751 | 14980 ft | 431 kts | 169° |
| 2026-05-07 17:05 | 32.81890 | 130.85141 | 14958 ft | 443 kts | 157° |
| 2026-05-07 17:05 | 32.79175 | 130.86864 | 14972 ft | 442 kts | 158° |
| 2026-05-07 17:05 | 32.76452 | 130.88573 | 14968 ft | 443 kts | 157° |
| 2026-05-07 17:06 | 32.73733 | 130.90289 | 14971 ft | 443 kts | 157° |
| 2026-05-07 17:06 | 32.71012 | 130.92001 | 14964 ft | 442 kts | 157° |
| 2026-05-07 17:06 | 32.68297 | 130.93709 | 14968 ft | 441 kts | 157° |
| 2026-05-07 17:06 | 32.65581 | 130.95414 | 14965 ft | 442 kts | 157° |
| 2026-05-07 17:07 | 32.62864 | 130.97117 | 14966 ft | 442 kts | 157° |
| 2026-05-07 17:07 | 32.60144 | 130.98822 | 14967 ft | 443 kts | 157° |
| 2026-05-07 17:07 | 32.57419 | 131.00532 | 14955 ft | 443 kts | 157° |
| 2026-05-07 17:07 | 32.54696 | 131.02240 | 14962 ft | 441 kts | 157° |
| 2026-05-07 17:08 | 32.51987 | 131.03933 | 14972 ft | 440 kts | 157° |
| 2026-05-07 17:08 | 32.49273 | 131.05627 | 14972 ft | 442 kts | 157° |
| 2026-05-07 17:08 | 32.46545 | 131.07334 | 14962 ft | 446 kts | 157° |
| 2026-05-07 17:08 | 32.43939 | 131.09308 | 14932 ft | 447 kts | 146° |
| 2026-05-07 17:09 | 32.41688 | 131.11890 | 14945 ft | 455 kts | 135° |
| 2026-05-07 17:09 | 32.39881 | 131.14980 | 14991 ft | 458 kts | 124° |
| 2026-05-07 17:09 | 32.38595 | 131.18463 | 14997 ft | 467 kts | 111° |
| 2026-05-07 17:09 | 32.37880 | 131.22213 | 15019 ft | 468 kts | 102° |
| 2026-05-07 17:10 | 32.37330 | 131.25980 | 15013 ft | 460 kts | 103° |
| 2026-05-07 17:10 | 32.36951 | 131.28435 | 15002 ft | 454 kts | 103° |
| 2026-05-07 17:10 | 32.36196 | 131.33208 | 14916 ft | 433 kts | 104° |
| 2026-05-07 17:10 | 32.35829 | 131.35542 | 14510 ft | 438 kts | 103° |
| 2026-05-07 17:11 | 32.35297 | 131.39003 | 13911 ft | 419 kts | 103° |
| 2026-05-07 17:11 | 32.34778 | 131.42397 | 13313 ft | 421 kts | 103° |
| 2026-05-07 17:11 | 32.34249 | 131.45777 | 12712 ft | 416 kts | 103° |
| 2026-05-07 17:11 | 32.33730 | 131.49084 | 12144 ft | 397 kts | 103° |
| 2026-05-07 17:12 | 32.33255 | 131.52162 | 11633 ft | 366 kts | 102° |
| 2026-05-07 17:12 | 32.32800 | 131.55074 | 11171 ft | 356 kts | 103° |
| 2026-05-07 17:12 | 32.32269 | 131.57873 | 10697 ft | 341 kts | 111° |
| 2026-05-07 17:12 | 32.31123 | 131.60219 | 10201 ft | 321 kts | 133° |
| 2026-05-07 17:13 | 32.29476 | 131.61899 | 9796 ft | 306 kts | 152° |
| 2026-05-07 17:13 | 32.27596 | 131.62835 | 9372 ft | 284 kts | 170° |
| 2026-05-07 17:13 | 32.25694 | 131.63075 | 9001 ft | 267 kts | 183° |
| 2026-05-07 17:13 | 32.23889 | 131.63111 | 8664 ft | 253 kts | 184° |
| 2026-05-07 17:14 | 32.22162 | 131.63152 | 8340 ft | 244 kts | 183° |
| 2026-05-07 17:14 | 32.20496 | 131.63201 | 8017 ft | 235 kts | 183° |
| 2026-05-07 17:14 | 32.18887 | 131.63250 | 7714 ft | 227 kts | 183° |
| 2026-05-07 17:14 | 32.17337 | 131.63294 | 7424 ft | 219 kts | 183° |
| 2026-05-07 17:15 | 32.15839 | 131.63336 | 7139 ft | 212 kts | 183° |
| 2026-05-07 17:15 | 32.14386 | 131.63377 | 6864 ft | 205 kts | 183° |
| 2026-05-07 17:15 | 32.12971 | 131.63417 | 6603 ft | 202 kts | 183° |
| 2026-05-07 17:15 | 32.11567 | 131.63456 | 6345 ft | 202 kts | 183° |
| 2026-05-07 17:16 | 32.10160 | 131.63496 | 6085 ft | 202 kts | 183° |
| 2026-05-07 17:16 | 32.08756 | 131.63536 | 5827 ft | 202 kts | 183° |
| 2026-05-07 17:16 | 32.07358 | 131.63577 | 5568 ft | 200 kts | 183° |
| 2026-05-07 17:16 | 32.05968 | 131.63617 | 5309 ft | 199 kts | 183° |
| 2026-05-07 17:17 | 32.04583 | 131.63656 | 5053 ft | 199 kts | 183° |
| 2026-05-07 17:17 | 32.03205 | 131.63695 | 4802 ft | 198 kts | 183° |
| 2026-05-07 17:17 | 32.01831 | 131.63735 | 4538 ft | 197 kts | 183° |
| 2026-05-07 17:17 | 32.00459 | 131.63774 | 4274 ft | 197 kts | 184° |
| 2026-05-07 17:18 | 31.99101 | 131.63814 | 4022 ft | 191 kts | 184° |
| 2026-05-07 17:18 | 31.97829 | 131.63731 | 3705 ft | 176 kts | 199° |
| 2026-05-07 17:18 | 31.96829 | 131.63018 | 3446 ft | 164 kts | 222° |
| 2026-05-07 17:18 | 31.95910 | 131.62225 | 3281 ft | 165 kts | 221° |
| 2026-05-07 17:19 | 31.94980 | 131.61437 | 3092 ft | 165 kts | 221° |
| 2026-05-07 17:19 | 31.94062 | 131.60658 | 2887 ft | 165 kts | 221° |
| 2026-05-07 17:19 | 31.93135 | 131.59871 | 2682 ft | 164 kts | 221° |
| 2026-05-07 17:19 | 31.92226 | 131.59101 | 2462 ft | 158 kts | 221° |
| 2026-05-07 17:20 | 31.91330 | 131.58338 | 2255 ft | 160 kts | 221° |
| 2026-05-07 17:20 | 31.90422 | 131.57564 | 2049 ft | 162 kts | 220° |
| 2026-05-07 17:20 | 31.89506 | 131.56788 | 1838 ft | 162 kts | 220° |
| 2026-05-07 17:20 | 31.88680 | 131.55909 | 1538 ft | 159 kts | 238° |
| 2026-05-07 17:21 | 31.88379 | 131.54672 | 1308 ft | 160 kts | 263° |
| 2026-05-07 17:21 | 31.88307 | 131.53349 | 1164 ft | 165 kts | 266° |
| 2026-05-07 17:21 | 31.88234 | 131.52004 | 955 ft | 163 kts | 265° |
| 2026-05-07 17:21 | 31.88141 | 131.50672 | 750 ft | 164 kts | 264° |
| 2026-05-07 17:22 | 31.88033 | 131.49331 | 569 ft | 161 kts | 266° |
| 2026-05-07 17:22 | 31.87930 | 131.48047 | 347 ft | 158 kts | 266° |
| 2026-05-07 17:22 | 31.87842 | 131.46744 | 149 ft | 159 kts | 266° |
| 2026-05-07 17:22 | 31.87754 | 131.45504 | 132 ft | 145 kts | 266° |
| 2026-05-07 17:23 | 31.87659 | 131.44327 | 414 ft | 151 kts | 266° |
| 2026-05-07 17:23 | 31.87554 | 131.42986 | 816 ft | 177 kts | 265° |
| 2026-05-07 17:23 | 31.87140 | 131.41594 | 1522 ft | 193 kts | 232° |
| 2026-05-07 17:23 | 31.85895 | 131.40946 | 2476 ft | 209 kts | 182° |
| 2026-05-07 17:24 | 31.84479 | 131.41624 | 3217 ft | 238 kts | 141° |
| 2026-05-07 17:24 | 31.83658 | 131.43289 | 3279 ft | 238 kts | 100° |
| 2026-05-07 17:24 | 31.83796 | 131.45172 | 3086 ft | 235 kts | 64° |
| 2026-05-07 17:24 | 31.84507 | 131.46888 | 2902 ft | 232 kts | 58° |
| 2026-05-07 17:25 | 31.85249 | 131.48572 | 2739 ft | 235 kts | 68° |
| 2026-05-07 17:25 | 31.85708 | 131.50372 | 2753 ft | 227 kts | 76° |
| 2026-05-07 17:25 | 31.86013 | 131.52231 | 2801 ft | 235 kts | 81° |
| 2026-05-07 17:25 | 31.86217 | 131.54111 | 2968 ft | 222 kts | 83° |
| 2026-05-07 17:26 | 31.86699 | 131.55715 | 2819 ft | 200 kts | 46° |
| 2026-05-07 17:26 | 31.87774 | 131.56450 | 2631 ft | 169 kts | 355° |
| 2026-05-07 17:26 | 31.88750 | 131.56037 | 2323 ft | 143 kts | 305° |
| 2026-05-07 17:26 | 31.88971 | 131.55009 | 1866 ft | 136 kts | 252° |
| 2026-05-07 17:27 | 31.88556 | 131.54002 | 1492 ft | 133 kts | 245° |
| 2026-05-07 17:27 | 31.88316 | 131.53001 | 1272 ft | 125 kts | 265° |
| 2026-05-07 17:27 | 31.88248 | 131.51979 | 1104 ft | 126 kts | 264° |
| 2026-05-07 17:27 | 31.88157 | 131.50936 | 929 ft | 131 kts | 262° |
| 2026-05-07 17:28 | 31.88078 | 131.49851 | 731 ft | 137 kts | 266° |
| 2026-05-07 17:28 | 31.87994 | 131.48728 | 515 ft | 136 kts | 265° |
| 2026-05-07 17:28 | 31.87906 | 131.47608 | 264 ft | 135 kts | 266° |
| 2026-05-07 17:28 | 31.87829 | 131.46546 | 116 ft | 130 kts | 266° |
| 2026-05-07 17:29 | 31.87757 | 131.45512 | 39 ft | 113 kts | 265° |
| 2026-05-07 17:29 | 31.87709 | 131.44871 | 39 ft | 45 kts | 265° |
| 2026-05-07 17:29 | 31.87684 | 131.44518 | 39 ft | 42 kts | 265° |
| 2026-05-07 17:29 | 31.87664 | 131.44242 | 38 ft | 20 kts | 265° |
| 2026-05-07 17:30 | 31.87622 | 131.44155 | 37 ft | 8 kts | 197° |
| 2026-05-07 17:30 | 31.87563 | 131.44155 | 38 ft | 9 kts | 178° |
| 2026-05-07 17:30 | 31.87534 | 131.44156 | 38 ft | 0 kts | 178° |
| 2026-05-07 17:30 | 31.87523 | 131.44161 | 38 ft | 4 kts | 150° |
| 2026-05-07 17:31 | 31.87492 | 131.44204 | 38 ft | 7 kts | 144° |
| 2026-05-07 17:31 | 31.87433 | 131.44215 | 38 ft | 10 kts | 175° |
| 2026-05-07 17:31 | 31.87376 | 131.44221 | 38 ft | 3 kts | 175° |
| 2026-05-07 17:31 | 31.87369 | 131.44221 | 38 ft | 0 kts | 175° |
| 2026-05-07 17:48 | 31.87370 | 131.44221 | 38 ft | 1 kts | 175° |
| 2026-05-07 17:48 | 31.87393 | 131.44219 | 36 ft | 4 kts | 175° |
| 2026-05-07 17:48 | 31.87419 | 131.44218 | 37 ft | 4 kts | 167° |
| 2026-05-07 17:48 | 31.87439 | 131.44210 | 36 ft | 4 kts | 154° |